createdAt,value
2023-04-22T00:02:56.592Z,11.80
2023-04-22T00:05:59.763Z,11.80
2023-04-22T00:09:03.913Z,11.81
2023-04-22T00:12:06.894Z,11.77
2023-04-22T00:15:10.914Z,11.83
2023-04-22T00:18:14.259Z,11.85
2023-04-22T00:21:17.206Z,11.74
2023-04-22T00:24:20.089Z,11.69
2023-04-22T00:27:22.948Z,11.72
2023-04-22T00:30:25.866Z,11.72
2023-04-22T00:33:28.639Z,11.68
2023-04-22T00:36:31.803Z,11.44
2023-04-22T00:39:35.561Z,11.55
2023-04-22T00:42:39.735Z,11.46
2023-04-22T00:45:43.552Z,11.46
2023-04-22T00:48:47.031Z,11.41
2023-04-22T00:51:49.742Z,11.39
2023-04-22T00:54:52.705Z,11.29
2023-04-22T00:57:58.513Z,11.22
2023-04-22T01:01:01.403Z,11.17
2023-04-22T01:04:04.891Z,11.14
2023-04-22T01:07:07.784Z,10.95
2023-04-22T01:10:10.896Z,11.02
2023-04-22T01:13:13.612Z,10.95
2023-04-22T01:16:16.648Z,10.81
2023-04-22T01:19:19.661Z,10.77
2023-04-22T01:22:23.138Z,10.67
2023-04-22T01:25:26.926Z,10.67
2023-04-22T01:28:31.632Z,10.65
2023-04-22T01:31:34.694Z,10.63
2023-04-22T01:34:37.481Z,10.56
2023-04-22T01:37:40.523Z,10.51
2023-04-22T01:40:43.505Z,10.45
2023-04-22T01:43:46.878Z,10.40
2023-04-22T01:46:49.703Z,10.29
2023-04-22T01:49:52.512Z,10.20
2023-04-22T01:52:58.612Z,10.18
2023-04-22T01:56:02.631Z,10.12
2023-04-22T01:59:05.523Z,10.05
2023-04-22T02:02:11.294Z,9.98
2023-04-22T02:05:14.214Z,10.03
2023-04-22T02:08:17.111Z,10.01
2023-04-22T02:11:21.440Z,9.96
2023-04-22T02:14:24.250Z,9.89
2023-04-22T02:17:27.559Z,9.80
2023-04-22T02:20:30.321Z,9.80
2023-04-22T02:23:33.301Z,9.80
2023-04-22T02:26:37.150Z,9.72
2023-04-22T02:29:40.454Z,9.61
2023-04-22T02:32:44.915Z,9.54
2023-04-22T02:35:47.774Z,9.38
2023-04-22T02:38:54.489Z,9.27
2023-04-22T02:41:57.247Z,9.24
2023-04-22T02:45:00.175Z,9.24
2023-04-22T02:48:03.122Z,9.17
2023-04-22T02:51:06.690Z,9.22
2023-04-22T02:54:09.661Z,9.08
2023-04-22T02:57:12.437Z,9.02
2023-04-22T03:00:15.456Z,9.01
2023-04-22T03:03:18.795Z,9.03
2023-04-22T03:06:21.904Z,9.08
2023-04-22T03:09:25.094Z,8.93
2023-04-22T03:12:27.826Z,9.00
2023-04-22T03:15:30.759Z,9.01
2023-04-22T03:18:33.515Z,8.97
2023-04-22T03:21:36.439Z,8.81
2023-04-22T03:24:39.223Z,8.77
2023-04-22T03:27:45.362Z,8.76
2023-04-22T03:30:48.646Z,8.68
2023-04-22T03:33:51.531Z,8.58
2023-04-22T03:37:04.006Z,8.59
2023-04-22T03:40:08.191Z,8.69
2023-04-22T03:43:11.356Z,8.64
2023-04-22T03:46:14.719Z,8.61
2023-04-22T03:49:23.643Z,8.59
2023-04-22T03:52:26.448Z,8.55
2023-04-22T03:55:34.655Z,8.58
2023-04-22T03:58:37.532Z,8.65
2023-04-22T04:01:42.965Z,8.61
2023-04-22T04:04:46.608Z,8.68
2023-04-22T04:07:51.718Z,8.58
2023-04-22T04:10:54.514Z,8.63
2023-04-22T04:13:58.894Z,8.73
2023-04-22T04:17:10.615Z,8.77
2023-04-22T04:20:13.604Z,8.91
2023-04-22T04:23:16.418Z,9.01
2023-04-22T04:26:20.630Z,9.05
2023-04-22T04:29:28.018Z,9.08
2023-04-22T04:32:45.805Z,9.12
2023-04-22T04:35:51.550Z,9.06
2023-04-22T04:38:58.591Z,9.12
2023-04-22T04:42:02.258Z,9.21
2023-04-22T04:45:09.396Z,9.38
2023-04-22T04:48:16.851Z,9.51
2023-04-22T04:51:26.773Z,9.57
2023-04-22T04:54:33.521Z,9.58
2023-04-22T04:57:38.393Z,9.66
2023-04-22T05:00:42.022Z,9.76
2023-04-22T05:03:46.412Z,9.81
2023-04-22T05:06:51.614Z,9.98
2023-04-22T05:09:55.280Z,10.22
2023-04-22T05:12:58.706Z,10.31
2023-04-22T05:16:02.368Z,10.39
2023-04-22T05:19:05.697Z,10.59
2023-04-22T05:22:09.586Z,10.83
2023-04-22T05:25:12.481Z,10.96
2023-04-22T05:28:23.113Z,11.14
2023-04-22T05:31:30.129Z,11.30
2023-04-22T05:34:34.359Z,11.41
2023-04-22T05:37:37.291Z,11.53
2023-04-22T05:40:40.696Z,11.76
2023-04-22T05:43:46.556Z,11.95
2023-04-22T05:46:54.119Z,12.14
2023-04-22T05:49:57.856Z,12.29
2023-04-22T05:53:15.977Z,12.37
2023-04-22T05:56:19.551Z,12.44
2023-04-22T05:59:22.396Z,12.77
2023-04-22T06:02:25.982Z,12.89
2023-04-22T06:05:28.891Z,12.93
2023-04-22T06:08:47.615Z,13.12
2023-04-22T06:11:50.392Z,13.27
2023-04-22T06:14:53.124Z,13.50
2023-04-22T06:17:55.948Z,13.70
2023-04-22T06:20:59.325Z,13.88
2023-04-22T06:24:02.240Z,14.04
2023-04-22T06:27:05.095Z,14.16
2023-04-22T06:30:09.552Z,14.23
2023-04-22T06:33:15.092Z,14.43
2023-04-22T06:36:17.959Z,14.58
2023-04-22T06:39:26.257Z,14.69
2023-04-22T06:43:04.588Z,14.78
2023-04-22T06:46:42.912Z,15.06
2023-04-22T06:50:15.214Z,15.25
2023-04-22T06:53:28.553Z,15.34
2023-04-22T06:56:31.422Z,15.45
2023-04-22T06:59:34.341Z,15.50
2023-04-22T07:02:37.367Z,15.63
2023-04-22T07:05:40.629Z,15.82
2023-04-22T07:08:44.845Z,15.75
2023-04-22T07:11:47.703Z,15.90
2023-04-22T07:14:54.754Z,16.09
2023-04-22T07:17:57.590Z,16.32
2023-04-22T07:21:00.495Z,16.59
2023-04-22T07:24:03.294Z,16.77
2023-04-22T07:27:06.195Z,16.83
2023-04-22T07:30:11.246Z,16.81
2023-04-22T07:33:14.065Z,17.01
2023-04-22T07:36:16.788Z,17.13
2023-04-22T07:39:20.026Z,17.25
2023-04-22T07:42:23.105Z,17.25
2023-04-22T07:45:25.869Z,17.44
2023-04-22T07:48:29.008Z,17.55
2023-04-22T07:51:32.458Z,17.62
2023-04-22T07:54:35.565Z,17.79
2023-04-22T07:57:40.020Z,17.93
2023-04-22T08:00:42.877Z,17.79
2023-04-22T08:03:45.738Z,17.92
2023-04-22T08:06:48.573Z,18.09
2023-04-22T08:09:52.023Z,18.14
2023-04-22T08:12:54.834Z,18.25
2023-04-22T08:15:57.756Z,18.19
2023-04-22T08:19:00.696Z,18.26
2023-04-22T08:22:03.438Z,18.46
2023-04-22T08:25:06.983Z,18.43
2023-04-22T08:28:09.777Z,18.61
2023-04-22T08:31:13.177Z,18.80
2023-04-22T08:34:15.949Z,18.73
2023-04-22T08:37:18.975Z,18.78
2023-04-22T08:40:22.772Z,19.01
2023-04-22T08:43:27.002Z,19.14
2023-04-22T08:46:31.145Z,18.91
2023-04-22T08:49:36.787Z,19.28
2023-04-22T08:52:39.808Z,19.42
2023-04-22T08:55:46.059Z,19.35
2023-04-22T08:58:49.154Z,19.15
2023-04-22T09:01:56.581Z,19.08
2023-04-22T09:05:02.017Z,19.44
2023-04-22T09:08:05.241Z,19.77
2023-04-22T09:11:08.131Z,20.01
2023-04-22T09:14:11.201Z,19.97
2023-04-22T09:17:18.737Z,19.96
2023-04-22T09:20:27.654Z,20.08
2023-04-22T09:23:31.085Z,19.87
2023-04-22T09:26:34.243Z,20.19
2023-04-22T09:29:37.222Z,20.41
2023-04-22T09:32:40.248Z,19.36
2023-04-22T09:35:44.234Z,19.96
2023-04-22T09:38:53.202Z,20.57
2023-04-22T09:41:56.789Z,20.79
2023-04-22T09:45:01.732Z,20.90
2023-04-22T09:48:17.411Z,20.88
2023-04-22T09:51:20.487Z,20.41
2023-04-22T09:54:23.876Z,20.83
2023-04-22T09:57:27.871Z,20.85
2023-04-22T10:00:31.263Z,20.93
2023-04-22T10:03:34.119Z,21.05
2023-04-22T10:06:37.991Z,21.60
2023-04-22T10:09:41.791Z,21.69
2023-04-22T10:12:47.152Z,21.72
2023-04-22T10:15:53.777Z,22.11
2023-04-22T10:18:57.255Z,21.45
2023-04-22T10:22:03.541Z,21.24
2023-04-22T10:25:10.979Z,21.29
2023-04-22T10:28:17.223Z,21.00
2023-04-22T10:31:23.723Z,21.99
2023-04-22T10:34:26.545Z,21.11
2023-04-22T10:37:29.258Z,20.89
2023-04-22T10:40:33.468Z,21.54
2023-04-22T10:43:46.884Z,21.22
2023-04-22T10:46:52.443Z,21.65
2023-04-22T10:50:21.323Z,22.26
2023-04-22T10:53:37.562Z,22.29
2023-04-22T10:57:04.930Z,22.27
2023-04-22T11:00:21.482Z,22.69
2023-04-22T11:03:29.940Z,23.41
2023-04-22T11:06:33.119Z,23.71
2023-04-22T11:09:40.815Z,24.15
2023-04-22T11:12:45.156Z,24.63
2023-04-22T11:15:54.240Z,24.56
2023-04-22T11:18:57.866Z,23.98
2023-04-22T11:22:00.817Z,24.00
2023-04-22T11:25:05.545Z,24.46
2023-04-22T11:28:10.583Z,24.62
2023-04-22T11:31:15.099Z,23.69
2023-04-22T11:34:18.860Z,23.24
2023-04-22T11:37:21.914Z,22.72
2023-04-22T11:40:37.108Z,22.48
2023-04-22T11:43:48.044Z,22.58
2023-04-22T11:46:51.225Z,22.59
2023-04-22T11:50:04.792Z,22.47
2023-04-22T11:53:21.731Z,22.39
2023-04-22T11:56:24.502Z,21.97
2023-04-22T11:59:28.696Z,22.32
2023-04-22T12:02:31.629Z,22.25
2023-04-22T12:05:42.726Z,21.95
2023-04-22T12:08:47.598Z,21.75
2023-04-22T12:11:51.899Z,21.23
2023-04-22T12:14:54.876Z,21.25
2023-04-22T12:17:57.594Z,21.37
2023-04-22T12:21:10.781Z,21.89
2023-04-22T12:24:15.182Z,22.22
2023-04-22T12:27:17.963Z,22.08
2023-04-22T12:30:20.948Z,21.88
2023-04-22T12:33:23.751Z,21.83
2023-04-22T12:36:26.807Z,22.53
2023-04-22T12:39:29.526Z,22.59
2023-04-22T12:42:32.530Z,22.38
2023-04-22T12:45:35.402Z,21.74
2023-04-22T12:48:38.315Z,21.82
2023-04-22T12:51:41.053Z,22.56
2023-04-22T12:54:43.759Z,22.23
2023-04-22T12:57:48.781Z,22.92
2023-04-22T13:00:51.607Z,23.15
2023-04-22T13:03:55.647Z,23.35
2023-04-22T13:06:58.550Z,23.31
2023-04-22T13:10:01.348Z,23.49
2023-04-22T13:16:14.179Z,23.69
2023-04-22T13:19:17.040Z,23.24
2023-04-22T13:22:20.398Z,23.19
2023-04-22T13:25:23.222Z,23.22
2023-04-22T13:28:26.010Z,23.47
2023-04-22T13:31:29.639Z,24.08
2023-04-22T13:34:32.461Z,23.62
2023-04-22T13:37:35.211Z,23.91
2023-04-22T13:40:37.991Z,23.70
2023-04-22T13:43:41.007Z,24.46
2023-04-22T13:46:44.097Z,24.80
2023-04-22T13:49:46.865Z,24.79
2023-04-22T13:52:49.752Z,25.14
2023-04-22T13:55:52.744Z,24.75
2023-04-22T13:58:55.669Z,25.16
2023-04-22T14:01:58.412Z,25.12
2023-04-22T14:05:01.542Z,24.11
2023-04-22T14:08:04.373Z,23.60
2023-04-22T14:11:08.800Z,24.16
2023-04-22T14:14:11.613Z,24.57
2023-04-22T14:17:14.408Z,25.44
2023-04-22T14:20:17.245Z,25.17
2023-04-22T14:23:20.409Z,24.39
2023-04-22T14:26:23.184Z,23.30
2023-04-22T14:29:26.426Z,23.10
2023-04-22T14:32:29.456Z,22.76
2023-04-22T14:35:32.234Z,22.68
2023-04-22T14:38:35.120Z,23.00
2023-04-22T14:41:37.990Z,23.52
2023-04-22T14:44:40.708Z,24.01
2023-04-22T14:47:43.476Z,25.00
2023-04-22T14:50:46.360Z,25.50
2023-04-22T14:53:49.368Z,25.44
2023-04-22T14:56:54.522Z,25.00
2023-04-22T14:59:57.366Z,25.12
2023-04-22T15:03:00.254Z,25.27
2023-04-22T15:06:03.443Z,25.23
2023-04-22T15:09:06.267Z,24.96
2023-04-22T15:12:09.461Z,24.40
2023-04-22T15:15:16.845Z,23.50
2023-04-22T15:18:19.680Z,23.83
2023-04-22T15:21:22.879Z,23.75
2023-04-22T15:24:26.011Z,23.63
2023-04-22T15:27:28.799Z,22.12
2023-04-22T15:30:31.568Z,21.99
2023-04-22T15:33:34.369Z,21.84
2023-04-22T15:36:37.289Z,21.75
2023-04-22T15:39:40.949Z,21.19
2023-04-22T15:42:44.174Z,21.13
2023-04-22T15:45:47.000Z,20.98
2023-04-22T15:48:49.954Z,20.20
2023-04-22T15:51:53.840Z,20.61
2023-04-22T15:54:56.563Z,20.76
2023-04-22T15:57:59.836Z,20.86
2023-04-22T16:01:15.447Z,20.91
2023-04-22T16:04:22.139Z,21.01
2023-04-22T16:07:25.133Z,20.77
2023-04-22T16:10:28.589Z,20.66
2023-04-22T16:13:31.563Z,20.54
2023-04-22T16:16:34.385Z,20.33
2023-04-22T16:19:37.297Z,20.31
2023-04-22T16:22:40.134Z,20.12
2023-04-22T16:25:42.983Z,19.85
2023-04-22T16:28:47.021Z,19.72
2023-04-22T16:31:49.829Z,19.62
2023-04-22T16:34:52.610Z,19.54
2023-04-22T16:37:55.413Z,19.40
2023-04-22T16:40:58.397Z,19.27
2023-04-22T16:44:01.265Z,19.12
2023-04-22T16:47:04.072Z,19.07
2023-04-22T16:50:07.492Z,18.89
2023-04-22T16:53:11.984Z,18.93
2023-04-22T16:56:14.796Z,18.78
2023-04-22T16:59:17.902Z,18.62
2023-04-22T17:02:21.006Z,18.52
2023-04-22T17:05:23.899Z,18.38
2023-04-22T17:08:26.664Z,18.34
2023-04-22T17:11:32.358Z,18.31
2023-04-22T17:14:35.140Z,18.02
2023-04-22T17:17:37.895Z,17.91
2023-04-22T17:20:40.811Z,17.83
2023-04-22T17:23:43.649Z,17.68
2023-04-22T17:26:46.390Z,17.60
2023-04-22T17:29:49.234Z,17.53
2023-04-22T17:32:52.066Z,17.32
2023-04-22T17:35:54.933Z,17.10
2023-04-22T17:38:57.688Z,16.91
2023-04-22T17:42:00.791Z,16.75
2023-04-22T17:45:04.550Z,16.61
2023-04-22T17:48:07.321Z,16.44
2023-04-22T17:51:10.296Z,16.32
2023-04-22T17:54:13.492Z,16.22
2023-04-22T17:57:16.580Z,16.10
2023-04-22T18:00:19.504Z,16.03
2023-04-22T18:03:22.400Z,15.92
2023-04-22T18:06:25.858Z,15.83
2023-04-22T18:09:28.601Z,15.77
2023-04-22T18:12:31.448Z,15.76
2023-04-22T18:15:34.138Z,15.70
2023-04-22T18:18:36.964Z,15.59
2023-04-22T18:21:49.533Z,15.14
2023-04-22T18:24:55.968Z,14.98
2023-04-22T18:27:58.773Z,14.93
2023-04-22T18:31:01.590Z,14.72
2023-04-22T18:34:05.782Z,14.82
2023-04-22T18:37:08.747Z,14.59
2023-04-22T18:40:12.600Z,14.25
2023-04-22T18:43:15.603Z,14.08
2023-04-22T18:46:18.321Z,14.05
2023-04-22T18:49:21.325Z,14.14
2023-04-22T18:52:25.663Z,13.99
2023-04-22T18:55:28.545Z,13.76
2023-04-22T18:58:31.336Z,13.51
2023-04-22T19:01:36.983Z,13.58
2023-04-22T19:04:40.509Z,13.53
2023-04-22T19:07:45.186Z,13.64
2023-04-22T19:10:48.354Z,13.58
2023-04-22T19:13:53.662Z,13.37
2023-04-22T19:16:56.588Z,13.33
2023-04-22T19:19:59.545Z,13.26
2023-04-22T19:23:02.390Z,13.21
2023-04-22T19:26:05.525Z,13.15
2023-04-22T19:29:08.801Z,12.96
2023-04-22T19:32:11.865Z,12.83
2023-04-22T19:35:16.606Z,12.73
2023-04-22T19:38:21.318Z,12.66
2023-04-22T19:41:24.189Z,12.62
2023-04-22T19:44:27.170Z,12.55
2023-04-22T19:47:30.133Z,12.57
2023-04-22T19:50:34.484Z,12.39
2023-04-22T19:53:39.325Z,12.31
2023-04-22T19:56:42.856Z,12.20
2023-04-22T19:59:47.238Z,12.17
2023-04-22T20:02:50.751Z,12.04
2023-04-22T20:05:54.721Z,11.96
2023-04-22T20:09:01.716Z,11.83
2023-04-22T20:12:05.252Z,11.88
2023-04-22T20:15:09.402Z,11.86
2023-04-22T20:18:12.527Z,11.74
2023-04-22T20:21:15.946Z,11.73
2023-04-22T20:24:19.947Z,11.59
2023-04-22T20:27:25.583Z,11.53
2023-04-22T20:30:28.842Z,11.45
2023-04-22T20:33:32.009Z,11.28
2023-04-22T20:36:35.411Z,11.07
2023-04-22T20:39:39.031Z,11.06
2023-04-22T20:42:41.936Z,11.19
2023-04-22T20:45:46.194Z,11.08
2023-04-22T20:48:49.376Z,11.07
2023-04-22T20:51:53.132Z,10.89
2023-04-22T20:54:56.648Z,10.83
2023-04-22T20:57:59.632Z,10.89
2023-04-22T21:01:02.701Z,10.79
2023-04-22T21:04:05.852Z,10.71
2023-04-22T21:07:11.969Z,10.72
2023-04-22T21:10:15.158Z,10.65
2023-04-22T21:13:18.547Z,10.42
2023-04-22T21:16:27.472Z,10.32
2023-04-22T21:19:33.794Z,10.33
2023-04-22T21:22:37.804Z,10.44
2023-04-22T21:25:41.664Z,10.47
2023-04-22T21:28:44.953Z,10.51
2023-04-22T21:32:01.282Z,10.39
2023-04-22T21:35:10.634Z,10.35
2023-04-22T21:38:14.032Z,10.29
2023-04-22T21:41:17.287Z,10.17
2023-04-22T21:44:20.112Z,9.98
2023-04-22T21:47:22.906Z,9.92
2023-04-22T21:50:26.372Z,9.86
2023-04-22T21:53:29.246Z,9.86
2023-04-22T21:56:33.836Z,9.76
2023-04-22T21:59:36.665Z,9.71
2023-04-22T22:02:39.504Z,9.70
2023-04-22T22:05:42.441Z,9.52
2023-04-22T22:08:46.071Z,9.66
2023-04-22T22:11:48.891Z,9.65
2023-04-22T22:14:52.065Z,9.58
2023-04-22T22:17:54.925Z,9.57
2023-04-22T22:20:57.785Z,9.58
2023-04-22T22:24:00.773Z,9.61
2023-04-22T22:27:05.080Z,9.58
2023-04-22T22:30:08.815Z,9.50
2023-04-22T22:33:11.721Z,9.39
2023-04-22T22:36:14.736Z,9.41
2023-04-22T22:39:18.102Z,9.43
2023-04-22T22:42:20.813Z,9.42
2023-04-22T22:45:23.612Z,9.34
2023-04-22T22:48:26.546Z,9.30
2023-04-22T22:51:30.083Z,9.35
2023-04-22T22:54:37.895Z,9.30
2023-04-22T22:57:40.742Z,9.26
2023-04-22T23:00:43.690Z,9.23
2023-04-22T23:03:48.451Z,9.20
2023-04-22T23:06:51.293Z,9.02
2023-04-22T23:09:54.062Z,8.73
2023-04-22T23:12:56.841Z,8.62
2023-04-22T23:15:59.697Z,8.59
2023-04-22T23:19:03.378Z,8.55
2023-04-22T23:22:07.450Z,8.21
2023-04-22T23:25:11.231Z,8.25
2023-04-22T23:28:14.403Z,8.39
2023-04-22T23:31:19.881Z,8.35
2023-04-22T23:34:26.548Z,8.49
2023-04-22T23:37:30.000Z,8.53
2023-04-22T23:40:32.853Z,8.55
2023-04-22T23:43:35.605Z,8.63
2023-04-22T23:46:38.621Z,8.48
2023-04-22T23:49:41.695Z,8.32
2023-04-22T23:52:44.722Z,8.44
2023-04-22T23:55:47.908Z,8.51
2023-04-22T23:58:51.280Z,8.47
